sensor_id;sensor_type;location;lat;lon;timestamp;pressure;altitude;pressure_sealevel;temperature;humidity
76866;BME280;66647;52.124;5.416;2023-03-14T00:00:56;98961.06;;;9.32;89.99
76866;BME280;66647;52.124;5.416;2023-03-14T00:03:39;98970.44;;;9.31;89.39
76866;BME280;66647;52.124;5.416;2023-03-14T00:06:09;98975.91;;;9.31;89.57
76866;BME280;66647;52.124;5.416;2023-03-14T00:08:42;98974.31;;;9.30;89.33
76866;BME280;66647;52.124;5.416;2023-03-14T00:11:18;98975.47;;;9.29;89.48
76866;BME280;66647;52.124;5.416;2023-03-14T00:13:52;98971.50;;;9.27;89.56
76866;BME280;66647;52.124;5.416;2023-03-14T00:16:21;98973.88;;;9.28;89.78
76866;BME280;66647;52.124;5.416;2023-03-14T00:18:48;98973.16;;;9.31;89.02
76866;BME280;66647;52.124;5.416;2023-03-14T00:21:15;98971.28;;;9.35;88.18
76866;BME280;66647;52.124;5.416;2023-03-14T00:23:42;98957.69;;;9.39;88.38
76866;BME280;66647;52.124;5.416;2023-03-14T00:26:17;98958.09;;;9.41;87.55
76866;BME280;66647;52.124;5.416;2023-03-14T00:28:44;98957.31;;;9.40;87.37
76866;BME280;66647;52.124;5.416;2023-03-14T00:31:14;98958.91;;;9.41;86.52
76866;BME280;66647;52.124;5.416;2023-03-14T00:33:42;98971.81;;;9.44;86.24
76866;BME280;66647;52.124;5.416;2023-03-14T00:36:57;98964.38;;;9.41;86.45
76866;BME280;66647;52.124;5.416;2023-03-14T00:40:09;98965.63;;;9.48;85.07
76866;BME280;66647;52.124;5.416;2023-03-14T00:42:36;98978.94;;;9.49;84.94
76866;BME280;66647;52.124;5.416;2023-03-14T00:45:03;98977.72;;;9.47;84.53
76866;BME280;66647;52.124;5.416;2023-03-14T00:47:32;98967.13;;;9.45;84.82
76866;BME280;66647;52.124;5.416;2023-03-14T00:49:59;98963.63;;;9.44;84.55
76866;BME280;66647;52.124;5.416;2023-03-14T00:52:26;98972.97;;;9.43;84.78
76866;BME280;66647;52.124;5.416;2023-03-14T00:54:52;98971.41;;;9.42;84.63
76866;BME280;66647;52.124;5.416;2023-03-14T00:57:19;98968.25;;;9.40;84.66
76866;BME280;66647;52.124;5.416;2023-03-14T00:59:45;98969.84;;;9.41;84.56
76866;BME280;66647;52.124;5.416;2023-03-14T01:02:12;98980.03;;;9.44;83.20
76866;BME280;66647;52.124;5.416;2023-03-14T01:04:38;98982.84;;;9.48;83.58
76866;BME280;66647;52.124;5.416;2023-03-14T01:07:08;98983.19;;;9.47;84.10
76866;BME280;66647;52.124;5.416;2023-03-14T01:09:35;98992.50;;;9.42;84.00
76866;BME280;66647;52.124;5.416;2023-03-14T01:12:02;98992.88;;;9.40;84.45
76866;BME280;66647;52.124;5.416;2023-03-14T01:14:31;98993.97;;;9.36;85.00
76866;BME280;66647;52.124;5.416;2023-03-14T01:16:57;98998.94;;;9.30;85.44
76866;BME280;66647;52.124;5.416;2023-03-14T01:19:28;98991.75;;;9.22;86.19
76866;BME280;66647;52.124;5.416;2023-03-14T01:21:54;98995.91;;;9.16;86.79
76866;BME280;66647;52.124;5.416;2023-03-14T01:24:21;99000.53;;;9.12;87.71
76866;BME280;66647;52.124;5.416;2023-03-14T01:26:52;99012.13;;;9.05;88.02
76866;BME280;66647;52.124;5.416;2023-03-14T01:29:19;99011.63;;;9.00;89.13
76866;BME280;66647;52.124;5.416;2023-03-14T01:31:46;99005.66;;;8.94;89.28
76866;BME280;66647;52.124;5.416;2023-03-14T01:34:13;99004.00;;;8.90;90.01
76866;BME280;66647;52.124;5.416;2023-03-14T01:36:45;98999.97;;;8.84;90.41
76866;BME280;66647;52.124;5.416;2023-03-14T01:39:12;99000.31;;;8.82;90.48
76866;BME280;66647;52.124;5.416;2023-03-14T01:41:40;99000.25;;;8.79;91.34
76866;BME280;66647;52.124;5.416;2023-03-14T01:44:12;98998.25;;;8.75;90.85
76866;BME280;66647;52.124;5.416;2023-03-14T01:46:46;98992.00;;;8.75;91.12
76866;BME280;66647;52.124;5.416;2023-03-14T01:49:31;98988.84;;;8.73;91.30
76866;BME280;66647;52.124;5.416;2023-03-14T01:52:23;98974.72;;;8.71;91.13
76866;BME280;66647;52.124;5.416;2023-03-14T01:54:55;98972.34;;;8.69;91.39
76866;BME280;66647;52.124;5.416;2023-03-14T01:57:30;98970.78;;;8.68;91.00
76866;BME280;66647;52.124;5.416;2023-03-14T02:02:48;98960.56;;;8.65;90.97
76866;BME280;66647;52.124;5.416;2023-03-14T02:05:22;98964.09;;;8.66;91.78
76866;BME280;66647;52.124;5.416;2023-03-14T02:07:58;98958.25;;;8.67;90.91
76866;BME280;66647;52.124;5.416;2023-03-14T02:10:34;98961.34;;;8.66;90.87
76866;BME280;66647;52.124;5.416;2023-03-14T02:13:06;98964.53;;;8.68;90.64
76866;BME280;66647;52.124;5.416;2023-03-14T02:15:49;98957.13;;;8.68;90.32
76866;BME280;66647;52.124;5.416;2023-03-14T02:18:45;98961.78;;;8.68;90.67
76866;BME280;66647;52.124;5.416;2023-03-14T02:24:28;98956.31;;;8.68;90.53
76866;BME280;66647;52.124;5.416;2023-03-14T02:27:11;98944.59;;;8.67;90.20
76866;BME280;66647;52.124;5.416;2023-03-14T02:29:53;98953.59;;;8.68;90.38
76866;BME280;66647;52.124;5.416;2023-03-14T02:32:22;98947.34;;;8.67;89.76
76866;BME280;66647;52.124;5.416;2023-03-14T02:34:54;98951.66;;;8.68;89.85
76866;BME280;66647;52.124;5.416;2023-03-14T02:37:23;98950.06;;;8.67;90.11
76866;BME280;66647;52.124;5.416;2023-03-14T02:39:55;98951.22;;;8.66;90.16
76866;BME280;66647;52.124;5.416;2023-03-14T02:42:22;98942.66;;;8.68;89.79
76866;BME280;66647;52.124;5.416;2023-03-14T02:44:57;98950.06;;;8.67;90.20
76866;BME280;66647;52.124;5.416;2023-03-14T02:47:29;98945.75;;;8.66;89.89
76866;BME280;66647;52.124;5.416;2023-03-14T02:50:10;98940.28;;;8.66;90.16
76866;BME280;66647;52.124;5.416;2023-03-14T02:52:46;98937.91;;;8.65;89.80
76866;BME280;66647;52.124;5.416;2023-03-14T02:55:14;98930.06;;;8.63;89.60
76866;BME280;66647;52.124;5.416;2023-03-14T02:57:43;98930.88;;;8.64;90.14
76866;BME280;66647;52.124;5.416;2023-03-14T03:00:12;98922.66;;;8.64;89.97
76866;BME280;66647;52.124;5.416;2023-03-14T03:02:39;98921.09;;;8.63;90.45
76866;BME280;66647;52.124;5.416;2023-03-14T03:05:06;98927.34;;;8.63;90.00
76866;BME280;66647;52.124;5.416;2023-03-14T03:07:32;98923.03;;;8.62;90.19
76866;BME280;66647;52.124;5.416;2023-03-14T03:09:59;98923.03;;;8.62;90.49
76866;BME280;66647;52.124;5.416;2023-03-14T03:12:27;98923.03;;;8.62;89.89
76866;BME280;66647;52.124;5.416;2023-03-14T03:14:54;98919.88;;;8.60;89.95
76866;BME280;66647;52.124;5.416;2023-03-14T03:17:20;98926.47;;;8.59;90.20
76866;BME280;66647;52.124;5.416;2023-03-14T03:19:47;98917.50;;;8.59;89.92
76866;BME280;66647;52.124;5.416;2023-03-14T03:22:14;98934.69;;;8.59;90.50
76866;BME280;66647;52.124;5.416;2023-03-14T03:24:40;98914.41;;;8.60;90.10
76866;BME280;66647;52.124;5.416;2023-03-14T03:27:07;98902.31;;;8.61;90.17
76866;BME280;66647;52.124;5.416;2023-03-14T03:29:34;98907.78;;;8.61;90.01
76866;BME280;66647;52.124;5.416;2023-03-14T03:32:01;98910.53;;;8.61;90.23
76866;BME280;66647;52.124;5.416;2023-03-14T03:34:27;98906.63;;;8.62;89.53
76866;BME280;66647;52.124;5.416;2023-03-14T03:36:58;98916.84;;;8.65;89.92
76866;BME280;66647;52.124;5.416;2023-03-14T03:39:32;98901.25;;;8.66;89.49
76866;BME280;66647;52.124;5.416;2023-03-14T03:41:59;98912.97;;;8.66;89.25
76866;BME280;66647;52.124;5.416;2023-03-14T03:44:27;98896.56;;;8.66;88.86
76866;BME280;66647;52.124;5.416;2023-03-14T03:46:54;98896.56;;;8.66;88.72
76866;BME280;66647;52.124;5.416;2023-03-14T03:49:21;98885.66;;;8.66;89.27
76866;BME280;66647;52.124;5.416;2023-03-14T03:51:51;98887.16;;;8.64;89.27
76866;BME280;66647;52.124;5.416;2023-03-14T03:54:18;98893.06;;;8.66;88.54
76866;BME280;66647;52.124;5.416;2023-03-14T03:56:45;98897.00;;;8.68;88.85
76866;BME280;66647;52.124;5.416;2023-03-14T03:59:13;98898.16;;;8.67;88.90
76866;BME280;66647;52.124;5.416;2023-03-14T04:01:46;98892.34;;;8.69;88.71
76866;BME280;66647;52.124;5.416;2023-03-14T04:04:18;98896.28;;;8.71;88.24
76866;BME280;66647;52.124;5.416;2023-03-14T04:06:44;98896.28;;;8.71;88.33
76866;BME280;66647;52.124;5.416;2023-03-14T04:09:12;98894.00;;;8.73;88.07
76866;BME280;66647;52.124;5.416;2023-03-14T04:11:44;98900.66;;;8.76;87.66
76866;BME280;66647;52.124;5.416;2023-03-14T04:14:20;98892.09;;;8.77;87.93
76866;BME280;66647;52.124;5.416;2023-03-14T04:16:52;98890.94;;;8.79;87.86
76866;BME280;66647;52.124;5.416;2023-03-14T04:19:20;98900.72;;;8.80;87.34
76866;BME280;66647;52.124;5.416;2023-03-14T04:21:49;98897.63;;;8.81;87.51
76866;BME280;66647;52.124;5.416;2023-03-14T04:24:17;98907.84;;;8.84;87.17
76866;BME280;66647;52.124;5.416;2023-03-14T04:26:48;98891.44;;;8.84;87.27
76866;BME280;66647;52.124;5.416;2023-03-14T04:29:15;98895.75;;;8.85;87.23
76866;BME280;66647;52.124;5.416;2023-03-14T04:31:43;98900.84;;;8.87;87.18
76866;BME280;66647;52.124;5.416;2023-03-14T04:34:10;98896.97;;;8.88;87.05
76866;BME280;66647;52.124;5.416;2023-03-14T04:36:43;98903.28;;;8.92;86.55
76866;BME280;66647;52.124;5.416;2023-03-14T04:39:15;98892.38;;;8.92;86.88
76866;BME280;66647;52.124;5.416;2023-03-14T04:41:50;98901.34;;;8.92;86.83
76866;BME280;66647;52.124;5.416;2023-03-14T04:44:24;98882.22;;;8.92;86.55
76866;BME280;66647;52.124;5.416;2023-03-14T04:46:52;98884.59;;;8.94;87.02
76866;BME280;66647;52.124;5.416;2023-03-14T04:49:19;98882.28;;;8.96;86.82
76866;BME280;66647;52.124;5.416;2023-03-14T04:51:59;98886.16;;;8.95;86.86
76866;BME280;66647;52.124;5.416;2023-03-14T04:54:27;98875.25;;;8.95;86.55
76866;BME280;66647;52.124;5.416;2023-03-14T04:56:57;98882.66;;;8.94;86.76
76866;BME280;66647;52.124;5.416;2023-03-14T04:59:24;98878.75;;;8.95;86.95
76866;BME280;66647;52.124;5.416;2023-03-14T05:01:55;98874.09;;;8.96;86.56
76866;BME280;66647;52.124;5.416;2023-03-14T05:04:40;98872.94;;;8.97;87.23
76866;BME280;66647;52.124;5.416;2023-03-14T05:07:42;98873.72;;;8.97;87.15
76866;BME280;66647;52.124;5.416;2023-03-14T05:10:33;98875.25;;;8.95;87.90
76866;BME280;66647;52.124;5.416;2023-03-14T05:13:29;98876.31;;;8.90;88.62
76866;BME280;66647;52.124;5.416;2023-03-14T05:16:12;98874.69;;;8.86;89.52
76866;BME280;66647;52.124;5.416;2023-03-14T05:19:14;98881.94;;;8.78;89.64
76866;BME280;66647;52.124;5.416;2023-03-14T05:21:59;98870.19;;;8.74;90.54
76866;BME280;66647;52.124;5.416;2023-03-14T05:24:48;98859.91;;;8.67;91.07
76866;BME280;66647;52.124;5.416;2023-03-14T05:27:27;98865.28;;;8.64;91.64
76866;BME280;66647;52.124;5.416;2023-03-14T05:30:09;98858.19;;;8.59;92.11
76866;BME280;66647;52.124;5.416;2023-03-14T05:32:54;98862.78;;;8.55;92.54
76866;BME280;66647;52.124;5.416;2023-03-14T05:35:39;98856.88;;;8.53;92.24
76866;BME280;66647;52.124;5.416;2023-03-14T05:38:30;98858.41;;;8.51;92.33
76866;BME280;66647;52.124;5.416;2023-03-14T05:41:23;98856.03;;;8.49;92.76
76866;BME280;66647;52.124;5.416;2023-03-14T05:44:08;98864.94;;;8.46;93.27
76866;BME280;66647;52.124;5.416;2023-03-14T05:46:53;98861.00;;;8.44;92.88
76866;BME280;66647;52.124;5.416;2023-03-14T05:49:35;98864.09;;;8.42;93.01
76866;BME280;66647;52.124;5.416;2023-03-14T05:52:28;98855.47;;;8.40;93.27
76866;BME280;66647;52.124;5.416;2023-03-14T05:55:17;98865.19;;;8.37;93.73
76866;BME280;66647;52.124;5.416;2023-03-14T05:58:10;98857.34;;;8.36;94.08
76866;BME280;66647;52.124;5.416;2023-03-14T06:01:05;98857.69;;;8.34;94.07
76866;BME280;66647;52.124;5.416;2023-03-14T06:03:43;98851.09;;;8.35;93.76
76866;BME280;66647;52.124;5.416;2023-03-14T06:06:11;98849.88;;;8.33;94.57
76866;BME280;66647;52.124;5.416;2023-03-14T06:08:39;98857.69;;;8.34;94.71
76866;BME280;66647;52.124;5.416;2023-03-14T06:11:11;98853.03;;;8.35;95.17
76866;BME280;66647;52.124;5.416;2023-03-14T06:13:38;98846.78;;;8.34;94.79
76866;BME280;66647;52.124;5.416;2023-03-14T06:16:05;98856.56;;;8.35;94.93
76866;BME280;66647;52.124;5.416;2023-03-14T06:18:32;98862.81;;;8.36;94.65
76866;BME280;66647;52.124;5.416;2023-03-14T06:20:59;98859.72;;;8.37;94.93
76866;BME280;66647;52.124;5.416;2023-03-14T06:23:28;98860.16;;;8.39;94.76
76866;BME280;66647;52.124;5.416;2023-03-14T06:26:01;98855.13;;;8.41;94.72
76866;BME280;66647;52.124;5.416;2023-03-14T06:28:31;98862.53;;;8.41;95.48
76866;BME280;66647;52.124;5.416;2023-03-14T06:31:00;98872.28;;;8.42;95.51
76866;BME280;66647;52.124;5.416;2023-03-14T06:33:34;98866.84;;;8.42;94.97
76866;BME280;66647;52.124;5.416;2023-03-14T06:36:04;98882.78;;;8.40;95.25
76866;BME280;66647;52.124;5.416;2023-03-14T06:38:32;98904.63;;;8.40;95.68
76866;BME280;66647;52.124;5.416;2023-03-14T06:41:07;98919.78;;;8.37;95.31
76866;BME280;66647;52.124;5.416;2023-03-14T06:43:40;98925.53;;;8.32;95.75
76866;BME280;66647;52.124;5.416;2023-03-14T06:46:08;98937.13;;;8.29;95.77
76866;BME280;66647;52.124;5.416;2023-03-14T06:48:37;98953.44;;;8.26;95.78
76866;BME280;66647;52.124;5.416;2023-03-14T06:51:05;98970.38;;;8.16;94.68
76866;BME280;66647;52.124;5.416;2023-03-14T06:53:32;98974.91;;;8.08;94.66
76866;BME280;66647;52.124;5.416;2023-03-14T06:56:02;98983.25;;;7.99;94.13
76866;BME280;66647;52.124;5.416;2023-03-14T06:58:31;98993.13;;;7.88;94.65
76866;BME280;66647;52.124;5.416;2023-03-14T07:00:58;98999.84;;;7.75;94.24
76866;BME280;66647;52.124;5.416;2023-03-14T07:03:31;99006.16;;;7.63;93.61
76866;BME280;66647;52.124;5.416;2023-03-14T07:05:59;99013.38;;;7.56;93.82
76866;BME280;66647;52.124;5.416;2023-03-14T07:08:26;99021.81;;;7.51;93.69
76866;BME280;66647;52.124;5.416;2023-03-14T07:10:52;99017.84;;;7.48;94.22
76866;BME280;66647;52.124;5.416;2023-03-14T07:13:22;99029.81;;;7.44;94.91
76866;BME280;66647;52.124;5.416;2023-03-14T07:15:59;99034.81;;;7.41;94.27
76866;BME280;66647;52.124;5.416;2023-03-14T07:18:27;99044.84;;;7.37;94.03
76866;BME280;66647;52.124;5.416;2023-03-14T07:20:54;99049.84;;;7.35;94.62
76866;BME280;66647;52.124;5.416;2023-03-14T07:23:21;99063.03;;;7.33;94.35
76866;BME280;66647;52.124;5.416;2023-03-14T07:25:51;99080.09;;;7.30;94.51
76866;BME280;66647;52.124;5.416;2023-03-14T07:28:21;99093.72;;;7.30;94.34
76866;BME280;66647;52.124;5.416;2023-03-14T07:30:56;99095.53;;;7.26;94.31
76866;BME280;66647;52.124;5.416;2023-03-14T07:33:27;99116.91;;;7.24;94.13
76866;BME280;66647;52.124;5.416;2023-03-14T07:35:56;99118.28;;;7.18;93.82
76866;BME280;66647;52.124;5.416;2023-03-14T07:38:22;99133.75;;;7.14;93.99
76866;BME280;66647;52.124;5.416;2023-03-14T07:41:09;99137.97;;;7.12;93.95
76866;BME280;66647;52.124;5.416;2023-03-14T07:43:42;99150.34;;;7.09;93.98
76866;BME280;66647;52.124;5.416;2023-03-14T07:46:09;99161.59;;;7.07;93.76
76866;BME280;66647;52.124;5.416;2023-03-14T07:48:35;99172.50;;;7.07;93.86
76866;BME280;66647;52.124;5.416;2023-03-14T07:51:02;99183.28;;;7.04;94.31
76866;BME280;66647;52.124;5.416;2023-03-14T07:53:29;99194.19;;;7.04;93.89
76866;BME280;66647;52.124;5.416;2023-03-14T07:55:55;99202.59;;;6.99;93.71
76866;BME280;66647;52.124;5.416;2023-03-14T07:58:22;99220.88;;;6.98;93.76
76866;BME280;66647;52.124;5.416;2023-03-14T08:00:51;99221.34;;;7.00;93.64
76866;BME280;66647;52.124;5.416;2023-03-14T08:03:17;99241.09;;;6.97;93.95
76866;BME280;66647;52.124;5.416;2023-03-14T08:05:47;99259.59;;;6.92;92.76
76866;BME280;66647;52.124;5.416;2023-03-14T08:08:14;99287.72;;;6.71;93.04
76866;BME280;66647;52.124;5.416;2023-03-14T08:10:41;99305.16;;;6.46;92.62
76866;BME280;66647;52.124;5.416;2023-03-14T08:13:09;99300.53;;;6.26;92.60
76866;BME280;66647;52.124;5.416;2023-03-14T08:15:36;99319.44;;;6.10;91.83
76866;BME280;66647;52.124;5.416;2023-03-14T08:18:04;99323.81;;;6.02;91.73
76866;BME280;66647;52.124;5.416;2023-03-14T08:20:33;99349.81;;;5.91;90.99
76866;BME280;66647;52.124;5.416;2023-03-14T08:23:00;99338.06;;;5.79;90.49
76866;BME280;66647;52.124;5.416;2023-03-14T08:25:29;99361.63;;;5.66;90.56
76866;BME280;66647;52.124;5.416;2023-03-14T08:27:56;99376.34;;;5.65;90.98
76866;BME280;66647;52.124;5.416;2023-03-14T08:30:23;99382.50;;;5.53;90.60
76866;BME280;66647;52.124;5.416;2023-03-14T08:32:50;99401.25;;;5.46;91.98
76866;BME280;66647;52.124;5.416;2023-03-14T08:35:17;99407.03;;;5.45;92.24
76866;BME280;66647;52.124;5.416;2023-03-14T08:37:44;99411.66;;;5.44;91.43
76866;BME280;66647;52.124;5.416;2023-03-14T08:40:11;99433.09;;;5.46;92.54
76866;BME280;66647;52.124;5.416;2023-03-14T08:42:39;99437.81;;;5.57;92.97
76866;BME280;66647;52.124;5.416;2023-03-14T08:45:07;99448.75;;;5.78;92.53
76866;BME280;66647;52.124;5.416;2023-03-14T08:47:34;99460.69;;;5.94;91.76
76866;BME280;66647;52.124;5.416;2023-03-14T08:50:03;99477.97;;;5.98;91.74
76866;BME280;66647;52.124;5.416;2023-03-14T08:52:31;99477.78;;;6.03;90.65
76866;BME280;66647;52.124;5.416;2023-03-14T08:54:58;99487.84;;;6.03;90.71
76866;BME280;66647;52.124;5.416;2023-03-14T08:57:27;99503.81;;;6.13;89.82
76866;BME280;66647;52.124;5.416;2023-03-14T08:59:55;99510.78;;;6.23;89.35
76866;BME280;66647;52.124;5.416;2023-03-14T09:02:23;99525.19;;;6.23;89.73
76866;BME280;66647;52.124;5.416;2023-03-14T09:04:50;99530.78;;;6.27;88.87
76866;BME280;66647;52.124;5.416;2023-03-14T09:07:18;99539.56;;;6.32;85.77
76866;BME280;66647;52.124;5.416;2023-03-14T09:09:45;99548.38;;;6.29;86.45
76866;BME280;66647;52.124;5.416;2023-03-14T09:12:12;99553.69;;;6.26;87.54
76866;BME280;66647;52.124;5.416;2023-03-14T09:14:40;99577.38;;;6.25;88.24
76866;BME280;66647;52.124;5.416;2023-03-14T09:17:06;99584.56;;;6.30;87.08
76866;BME280;66647;52.124;5.416;2023-03-14T09:19:34;99590.94;;;6.34;85.61
76866;BME280;66647;52.124;5.416;2023-03-14T09:22:04;99590.66;;;6.27;85.41
76866;BME280;66647;52.124;5.416;2023-03-14T09:24:30;99599.47;;;6.24;85.27
76866;BME280;66647;52.124;5.416;2023-03-14T09:26:57;99621.44;;;6.19;83.48
76866;BME280;66647;52.124;5.416;2023-03-14T09:29:24;99631.41;;;6.15;84.36
76866;BME280;66647;52.124;5.416;2023-03-14T09:31:51;99639.25;;;6.07;84.60
76866;BME280;66647;52.124;5.416;2023-03-14T09:34:18;99646.78;;;6.11;84.64
76866;BME280;66647;52.124;5.416;2023-03-14T09:36:45;99652.53;;;6.09;83.11
76866;BME280;66647;52.124;5.416;2023-03-14T09:39:12;99660.66;;;6.18;83.81
76866;BME280;66647;52.124;5.416;2023-03-14T09:41:41;99673.13;;;6.27;84.57
76866;BME280;66647;52.124;5.416;2023-03-14T09:44:27;99683.19;;;6.35;85.08
76866;BME280;66647;52.124;5.416;2023-03-14T09:46:58;99692.00;;;6.32;81.77
76866;BME280;66647;52.124;5.416;2023-03-14T09:51:58;99706.09;;;6.26;82.09
76866;BME280;66647;52.124;5.416;2023-03-14T09:54:51;99706.59;;;6.28;81.84
76866;BME280;66647;52.124;5.416;2023-03-14T09:57:21;99723.22;;;6.35;82.73
76866;BME280;66647;52.124;5.416;2023-03-14T09:59:50;99730.56;;;6.43;82.38
76866;BME280;66647;52.124;5.416;2023-03-14T10:02:26;99745.75;;;6.53;81.81
76866;BME280;66647;52.124;5.416;2023-03-14T10:04:55;99751.66;;;6.55;81.28
76866;BME280;66647;52.124;5.416;2023-03-14T10:07:36;99748.91;;;6.63;82.12
76866;BME280;66647;52.124;5.416;2023-03-14T10:10:10;99768.28;;;6.70;81.18
76866;BME280;66647;52.124;5.416;2023-03-14T10:12:38;99782.00;;;6.83;81.89
76866;BME280;66647;52.124;5.416;2023-03-14T10:15:13;99792.91;;;6.83;80.94
76866;BME280;66647;52.124;5.416;2023-03-14T10:17:51;99786.56;;;6.61;81.08
76866;BME280;66647;52.124;5.416;2023-03-14T10:20:29;99824.59;;;6.32;81.04
76866;BME280;66647;52.124;5.416;2023-03-14T10:23:18;99838.38;;;6.27;83.30
76866;BME280;66647;52.124;5.416;2023-03-14T10:26:04;99855.50;;;6.36;84.03
76866;BME280;66647;52.124;5.416;2023-03-14T10:28:33;99862.25;;;6.47;84.61
76866;BME280;66647;52.124;5.416;2023-03-14T10:31:03;99866.38;;;6.53;83.78
76866;BME280;66647;52.124;5.416;2023-03-14T10:33:34;99870.38;;;6.64;83.07
76866;BME280;66647;52.124;5.416;2023-03-14T10:36:17;99883.66;;;6.74;83.31
76866;BME280;66647;52.124;5.416;2023-03-14T10:38:46;99886.31;;;6.92;83.09
76866;BME280;66647;52.124;5.416;2023-03-14T10:41:32;99901.56;;;6.93;81.07
76866;BME280;66647;52.124;5.416;2023-03-14T10:44:13;99915.69;;;6.78;81.98
76866;BME280;66647;52.124;5.416;2023-03-14T10:46:41;99931.41;;;6.72;81.48
76866;BME280;66647;52.124;5.416;2023-03-14T10:49:36;99940.06;;;6.74;81.63
76866;BME280;66647;52.124;5.416;2023-03-14T10:54:42;99973.22;;;6.67;78.99
76866;BME280;66647;52.124;5.416;2023-03-14T10:57:13;99984.28;;;6.54;78.45
76866;BME280;66647;52.124;5.416;2023-03-14T10:59:42;99996.47;;;6.39;80.97
76866;BME280;66647;52.124;5.416;2023-03-14T11:08:11;100021.41;;;6.24;77.65
76866;BME280;66647;52.124;5.416;2023-03-14T11:10:39;100040.47;;;6.24;78.32
76866;BME280;66647;52.124;5.416;2023-03-14T11:16:16;100030.41;;;6.50;76.71
76866;BME280;66647;52.124;5.416;2023-03-14T11:29:55;100087.06;;;9.04;66.72
76866;BME280;66647;52.124;5.416;2023-03-14T11:35:24;100094.13;;;9.26;66.19
76866;BME280;66647;52.124;5.416;2023-03-14T11:37:56;100113.47;;;9.41;63.71
76866;BME280;66647;52.124;5.416;2023-03-14T11:40:29;100124.56;;;9.90;62.57
76866;BME280;66647;52.124;5.416;2023-03-14T11:43:09;100114.97;;;9.84;61.39
76866;BME280;66647;52.124;5.416;2023-03-14T11:45:42;100129.66;;;10.25;60.21
76866;BME280;66647;52.124;5.416;2023-03-14T11:51:02;100144.59;;;9.82;63.39
76866;BME280;66647;52.124;5.416;2023-03-14T11:53:43;100153.44;;;10.45;60.18
76866;BME280;66647;52.124;5.416;2023-03-14T11:59:07;100158.38;;;10.06;53.57
76866;BME280;66647;52.124;5.416;2023-03-14T12:02:05;100165.00;;;10.05;56.83
76866;BME280;66647;52.124;5.416;2023-03-14T12:07:52;100173.06;;;10.35;56.43
76866;BME280;66647;52.124;5.416;2023-03-14T12:13:19;100191.38;;;10.67;54.00
76866;BME280;66647;52.124;5.416;2023-03-14T12:16:46;100196.81;;;10.43;59.92
76866;BME280;66647;52.124;5.416;2023-03-14T12:19:34;100204.47;;;9.71;60.64
76866;BME280;66647;52.124;5.416;2023-03-14T12:22:08;100230.75;;;9.22;56.27
76866;BME280;66647;52.124;5.416;2023-03-14T12:24:45;100227.28;;;8.84;56.78
76866;BME280;66647;52.124;5.416;2023-03-14T12:27:48;100233.06;;;8.82;57.27
76866;BME280;66647;52.124;5.416;2023-03-14T12:33:11;100249.97;;;9.14;56.64
76866;BME280;66647;52.124;5.416;2023-03-14T12:42:40;100247.84;;;9.19;51.43
76866;BME280;66647;52.124;5.416;2023-03-14T12:45:22;100255.56;;;9.17;55.20
76866;BME280;66647;52.124;5.416;2023-03-14T12:48:27;100275.09;;;9.36;54.74
76866;BME280;66647;52.124;5.416;2023-03-14T12:50:56;100281.22;;;9.33;54.28
76866;BME280;66647;52.124;5.416;2023-03-14T12:56:11;100273.03;;;9.33;53.18
76866;BME280;66647;52.124;5.416;2023-03-14T13:04:34;100308.97;;;8.85;51.84
76866;BME280;66647;52.124;5.416;2023-03-14T13:07:15;100307.22;;;8.81;52.45
76866;BME280;66647;52.124;5.416;2023-03-14T13:12:29;100332.47;;;8.77;51.04
76866;BME280;66647;52.124;5.416;2023-03-14T13:15:11;100336.59;;;9.01;52.01
76866;BME280;66647;52.124;5.416;2023-03-14T13:17:39;100341.69;;;9.11;52.31
76866;BME280;66647;52.124;5.416;2023-03-14T13:20:16;100339.69;;;9.29;53.83
76866;BME280;66647;52.124;5.416;2023-03-14T13:22:48;100342.38;;;9.37;51.23
76866;BME280;66647;52.124;5.416;2023-03-14T13:25:17;100355.59;;;9.35;51.24
76866;BME280;66647;52.124;5.416;2023-03-14T13:27:44;100359.44;;;9.34;49.03
76866;BME280;66647;52.124;5.416;2023-03-14T13:30:19;100369.16;;;9.23;50.28
76866;BME280;66647;52.124;5.416;2023-03-14T13:32:47;100358.69;;;9.25;49.00
76866;BME280;66647;52.124;5.416;2023-03-14T13:35:20;100384.03;;;9.05;47.60
76866;BME280;66647;52.124;5.416;2023-03-14T13:37:47;100389.09;;;8.68;48.07
76866;BME280;66647;52.124;5.416;2023-03-14T13:40:34;100397.94;;;8.31;49.93
76866;BME280;66647;52.124;5.416;2023-03-14T13:43:13;100405.97;;;8.19;52.22
76866;BME280;66647;52.124;5.416;2023-03-14T13:45:48;100420.31;;;8.33;50.73
76866;BME280;66647;52.124;5.416;2023-03-14T13:48:19;100405.84;;;8.41;50.11
76866;BME280;66647;52.124;5.416;2023-03-14T13:50:49;100416.16;;;8.44;50.38
76866;BME280;66647;52.124;5.416;2023-03-14T13:53:17;100418.53;;;8.54;51.64
76866;BME280;66647;52.124;5.416;2023-03-14T13:55:44;100435.41;;;8.73;52.64
76866;BME280;66647;52.124;5.416;2023-03-14T13:58:28;100438.59;;;8.84;52.52
76866;BME280;66647;52.124;5.416;2023-03-14T14:01:04;100446.81;;;8.58;52.32
76866;BME280;66647;52.124;5.416;2023-03-14T14:03:37;100460.47;;;8.50;52.36
76866;BME280;66647;52.124;5.416;2023-03-14T14:06:10;100467.06;;;8.49;51.77
76866;BME280;66647;52.124;5.416;2023-03-14T14:08:43;100472.38;;;8.36;53.86
76866;BME280;66647;52.124;5.416;2023-03-14T14:11:22;100481.03;;;8.30;55.38
76866;BME280;66647;52.124;5.416;2023-03-14T14:14:32;100490.47;;;8.24;56.90
76866;BME280;66647;52.124;5.416;2023-03-14T14:17:02;100499.03;;;8.31;55.78
76866;BME280;66647;52.124;5.416;2023-03-14T14:19:32;100502.69;;;8.26;54.83
76866;BME280;66647;52.124;5.416;2023-03-14T14:22:00;100519.88;;;8.18;54.33
76866;BME280;66647;52.124;5.416;2023-03-14T14:24:30;100519.41;;;8.25;53.43
76866;BME280;66647;52.124;5.416;2023-03-14T14:29:39;100528.97;;;7.96;53.17
76866;BME280;66647;52.124;5.416;2023-03-14T14:34:43;100552.34;;;7.80;52.53
76866;BME280;66647;52.124;5.416;2023-03-14T14:37:28;100555.44;;;7.87;53.36
76866;BME280;66647;52.124;5.416;2023-03-14T14:39:58;100546.09;;;7.80;52.57
76866;BME280;66647;52.124;5.416;2023-03-14T14:42:27;100556.13;;;7.62;50.79
76866;BME280;66647;52.124;5.416;2023-03-14T14:44:57;100572.09;;;7.46;50.25
76866;BME280;66647;52.124;5.416;2023-03-14T14:47:26;100576.75;;;7.46;51.92
76866;BME280;66647;52.124;5.416;2023-03-14T14:49:54;100571.28;;;7.46;50.66